Walla Walla, WA

4:55 AM PDT on October 01, 2014 (GMT -0700)
Whitman | Change Station
CLOSE
Current Station
Personal Weather Station
Location: Walla Walla, WA
Elevation: 994 ft
Nearby Weather Stations

Elev 994 ft 46.07 °N, 118.33 °W | Updated 8 minutes ago

Overcast
Overcast
51.2 °F
Feels Like 51.2 °F
N
2.0
Wind Variable Wind from SE
Gusts 6.0 mph

Today
High -- | Low -- °F
--% Chance of Precip.
Yesterday
High -- | Low -- °F
Precip. -- in
6:51 AM 6:33 PM
Waxing Crescent, 47% visible
Pressure 30.13 in
Visibility 10.0 miles
Clouds Overcast 7000 ft
Dew Point 44 °F
Humidity 75%
Rainfall 0.00 in
Snow Depth 0 in , 0 in , 1 in
UV 0 out of 12
Pollen 4.00 out of 12
Air Quality Not available.
Flu Activity Not available.
METAR KALW 011053Z AUTO 18009KT 10SM OVC070 11/07 A3013 RMK AO2 SLP202 T01110067

More Conditions Fewer Conditions

Pressure 30.13 in
Visibility 10.0 miles
Clouds Overcast 7000 ft
Dew Point 44 °F
Humidity 75%
Rainfall 0.00 in
Snow Depth 0 in , 0 in , 1 in
UV 0 out of 12
Pollen 4.00 out of 12
Air Quality Not available.
Flu Activity Not available.
METAR KALW 011053Z AUTO 18009KT 10SM OVC070 11/07 A3013 RMK AO2 SLP202 T01110067

More Conditions Fewer Conditions

10-Day Weather Forecast

Almanac

Astronomy

Oct. 01, 2014 Rise Set
Actual Time 6:51 AM PDT 6:33 PM PDT
Civil Twilight 6:22 AM PDT 7:02 PM PDT
Nautical Twilight 5:47 AM PDT 7:37 PM PDT
Astronomical Twilight 5:11 AM PDT 8:12 PM PDT
Moon 2:10 PM PDT 11:57 PM PDT
Length of Visible Light 12h 40m
Length of Day
11h 41m
Tomorrow will be 3m 14s shorter.
Waxing Crescent, 47% of the Moon is Illuminated
Today
Waxing Crescent
Oct 1
First Quarter
Oct 8
Full
Oct 15
Last Quarter
Oct 23
New

Today's Extremes

State Highs State Lows

Community

WunderPhotos

Upload Photos

1,757,913 photos uploaded!

Nearby

Snow Depth

Station Depth Elevation
Upper Wheeler 0 in 4400 ft
Mount Gardner 0 in 3000 ft
Spruce Springs 1 in 5700 ft
Spencer Meadow 0 in 3400 ft
Meadows Pass 1 in 3500 ft

Earthquake Activity

City Distance Mag. Time & Date
No recent earthquake activity has been reported nearby.
Minimum magnitude displayed is 2.5.

Coastal Water Temperatures

Place Temperature
No Stations Reporting

Nearby Weather Stations